Detall de PIREP

Printer-friendly versionPDF version

[2011/01/02 11:19:00]
Flight IATA:CT1004
Pilot Number:042
Company ICAO:CAT
Aircraft Type:B763/F
PAX:150
Departing Airport: LIEA
Destination Airport: LMML
Alternate Airport:HLLT
Online: VATSIM
Route:SODIO UM732 GZO
Flight Level:FL350
No Slew and time accel
No pause
Crash detect
Detect pilot in Cockpit between each 30 and 45 minutes
11:19 Zero fuel Weight: 244976 Lbs, Fuel Weight: 161241 Lbs
11:19 VATSIM:LIEA 021050Z 00000KT 8000 SCT025 BKN040 11/11 Q1014
11:19 VATSIM:LMML 021045Z 33005KT 300V010 9999 BKN023 BKN250 15/10 Q1012 TEMPO 8000 SHRA BKN015
11:20 VOICE CATALONIAN/X-MAS CHARTER
11:29 Parking Brakes off
11:33 Take-off
11:33 Take off Weight: 403235 Lbs
11:33 Wind: 000 @ 000 Knots Heading: 024
11:33 POS N40 38 13 E008 17 37
11:33 Gear Up: 184 Knots
11:33 Flaps:3 at 184 Knots
11:33 Flaps:2 at 187 Knots
11:34 Flaps:1 at 182 Knots
11:34 Flaps:0 at 235 Knots
11:48 Wind:105@012 Knots Heading: 146 Ground Speed: 445 Knots Altitude 31801 ft
11:50 TOC
11:50 Fuel Weight: 149821 Lb
12:03 Wind:045@008 Knots Heading: 127 Ground Speed: 446 Knots Altitude 35006 ft
12:17 TOD
12:17 Fuel Weight: 144279 Lb
12:18 Wind:277@009 Knots Heading: 129 Ground Speed: 444 Knots Altitude 33664 ft
12:33 Wind:314@018 Knots Heading: 146 Ground Speed: 307 Knots Altitude 9301 ft
12:38 Flaps:1 at 218 Knots
12:38 Flaps:2 at 218 Knots
12:43 Flaps:3 at 160 Knots
12:44 Gear Down: 158 Knots
12:44 Flaps:4 at 157 Knots
12:45 Flaps:5 at 154 Knots
12:45 Flaps:6 at 148 Knots
12:48 Wind:319@009 Knots Heading: 315 Ground Speed: 144 Knots Altitude 1745 ft
12:50 TouchDown:Rate -180 ft/min Speed: 134 Knots
12:50 VATSIM:LMML 021215Z 32010KT 9999 FEW021 BKN250 15/11 Q1011 NOSIG
12:50 Land
12:50 Wind:319@010 Knots
12:50 Heading: 313
12:50 Flight Duration: 01:17
12:50 Landing Weight: 384083 Lbs
12:50 POS N35 50 46 E014 29 36
12:51 Parking brakes on
12:51 Block to Block Duration: 01:22
12:51 Final Fuel: 138994 Lbls
12:51 Spent Fuel: 22246 Lbls
12:51 Flight Length: 462 NM
12:51 TOD Land Length: 155 NM

Exportar CSV

Powered by Drupal - Modified by Danger4k